createdAt,value
2022-10-18T00:02:13.346Z,4.25
2022-10-18T00:04:39.960Z,4.80
2022-10-18T00:07:06.395Z,4.70
2022-10-18T00:09:33.377Z,4.10
2022-10-18T00:12:00.752Z,4.63
2022-10-18T00:14:27.201Z,4.18
2022-10-18T00:16:53.707Z,5.10
2022-10-18T00:19:20.145Z,3.92
2022-10-18T00:21:46.534Z,4.28
2022-10-18T00:24:12.966Z,4.38
2022-10-18T00:26:39.402Z,4.88
2022-10-18T00:29:07.000Z,4.30
2022-10-18T00:31:37.996Z,3.90
2022-10-18T00:34:08.087Z,3.90
2022-10-18T00:36:34.935Z,4.43
2022-10-18T00:39:03.052Z,4.82
2022-10-18T00:41:32.399Z,5.03
2022-10-18T00:44:04.365Z,4.57
2022-10-18T00:46:39.505Z,4.65
2022-10-18T00:49:15.564Z,5.30
2022-10-18T00:51:49.853Z,5.50
2022-10-18T00:54:18.064Z,4.67
2022-10-18T00:56:45.410Z,4.82
2022-10-18T00:59:15.020Z,4.25
2022-10-18T01:01:41.760Z,3.95
2022-10-18T01:04:08.331Z,4.03
2022-10-18T01:06:50.078Z,4.10
2022-10-18T01:09:30.037Z,3.80
2022-10-18T01:12:04.442Z,3.75
2022-10-18T01:14:36.894Z,4.03
2022-10-18T01:17:31.863Z,4.10
2022-10-18T01:20:25.653Z,4.23
2022-10-18T01:23:03.094Z,4.25
2022-10-18T01:25:40.137Z,4.07
2022-10-18T01:28:27.350Z,3.85
2022-10-18T01:31:01.363Z,3.30
2022-10-18T01:33:38.617Z,3.90
2022-10-18T01:36:17.070Z,3.97
2022-10-18T01:38:44.912Z,3.67
2022-10-18T01:41:15.752Z,3.85
2022-10-18T01:43:45.381Z,4.35
2022-10-18T01:46:15.681Z,3.93
2022-10-18T01:48:42.548Z,3.95
2022-10-18T01:51:09.279Z,3.90
2022-10-18T01:53:35.870Z,4.28
2022-10-18T01:56:41.001Z,3.40
2022-10-18T01:59:22.588Z,3.80
2022-10-18T02:02:21.148Z,3.78
2022-10-18T02:04:56.037Z,4.10
2022-10-18T02:07:42.639Z,3.90
2022-10-18T02:12:49.158Z,3.73
2022-10-18T02:15:22.192Z,4.20
2022-10-18T02:17:48.623Z,4.30
2022-10-18T02:20:20.064Z,4.05
2022-10-18T02:22:49.509Z,4.13
2022-10-18T02:25:21.237Z,3.57
2022-10-18T02:27:47.828Z,3.47
2022-10-18T02:30:15.710Z,3.47
2022-10-18T02:32:51.769Z,3.63
2022-10-18T02:35:29.271Z,3.78
2022-10-18T02:37:58.035Z,3.67
2022-10-18T02:40:25.723Z,3.45
2022-10-18T02:42:57.389Z,3.88
2022-10-18T02:45:25.420Z,4.22
2022-10-18T02:47:52.471Z,4.10
2022-10-18T02:50:19.170Z,4.20
2022-10-18T02:52:45.645Z,3.72
2022-10-18T02:55:12.067Z,4.15
2022-10-18T02:57:38.529Z,3.67
2022-10-18T03:00:06.018Z,3.95
2022-10-18T03:02:32.505Z,3.50
2022-10-18T03:04:58.998Z,3.63
2022-10-18T03:07:25.569Z,2.83
2022-10-18T03:09:52.005Z,3.00
2022-10-18T03:12:18.531Z,3.05
2022-10-18T03:14:44.939Z,3.30
2022-10-18T03:17:11.410Z,2.55
2022-10-18T03:19:38.727Z,2.10
2022-10-18T03:22:05.601Z,2.50
2022-10-18T03:24:32.179Z,2.63
2022-10-18T03:26:58.591Z,3.00
2022-10-18T03:29:25.018Z,3.70
2022-10-18T03:31:51.415Z,2.60
2022-10-18T03:34:18.083Z,2.80
2022-10-18T03:36:44.495Z,2.40
2022-10-18T03:39:11.375Z,2.50
2022-10-18T03:41:37.798Z,2.80
2022-10-18T03:44:04.413Z,2.40
2022-10-18T03:46:30.864Z,2.45
2022-10-18T03:48:57.326Z,2.38
2022-10-18T03:51:23.778Z,2.40
2022-10-18T03:53:50.187Z,2.70
2022-10-18T03:56:16.582Z,2.40
2022-10-18T03:58:43.057Z,2.47
2022-10-18T04:01:09.549Z,2.72
2022-10-18T04:03:36.013Z,2.27
2022-10-18T04:06:03.593Z,2.28
2022-10-18T04:08:30.456Z,2.17
2022-10-18T04:10:56.926Z,2.30
2022-10-18T04:13:23.396Z,2.40
2022-10-18T04:15:49.841Z,2.17
2022-10-18T04:18:16.275Z,2.75
2022-10-18T04:20:42.740Z,2.55
2022-10-18T04:23:09.151Z,2.50
2022-10-18T04:25:35.622Z,1.90
2022-10-18T04:28:02.197Z,3.63
2022-10-18T04:30:28.618Z,2.55
2022-10-18T04:32:55.318Z,2.03
2022-10-18T04:35:24.457Z,2.63
2022-10-18T04:37:50.926Z,2.30
2022-10-18T04:40:17.510Z,2.70
2022-10-18T04:42:44.010Z,2.47
2022-10-18T04:45:11.067Z,2.22
2022-10-18T04:47:37.482Z,2.58
2022-10-18T04:50:05.156Z,2.30
2022-10-18T04:52:31.899Z,2.27
2022-10-18T04:54:58.336Z,2.13
2022-10-18T04:57:24.744Z,1.60
2022-10-18T04:59:51.279Z,1.15
2022-10-18T05:02:17.734Z,1.75
2022-10-18T05:04:44.168Z,2.10
2022-10-18T05:07:10.649Z,2.08
2022-10-18T05:09:37.102Z,2.33
2022-10-18T05:12:03.676Z,2.03
2022-10-18T05:14:30.190Z,2.60
2022-10-18T05:16:56.629Z,1.40
2022-10-18T05:19:23.126Z,2.10
2022-10-18T05:21:49.584Z,2.50
2022-10-18T05:24:16.025Z,2.13
2022-10-18T05:26:42.460Z,2.50
2022-10-18T05:29:08.965Z,2.57
2022-10-18T05:31:35.506Z,2.28
2022-10-18T05:34:02.226Z,2.13
2022-10-18T05:36:28.742Z,2.20
2022-10-18T05:38:56.294Z,2.28
2022-10-18T05:41:23.399Z,2.37
2022-10-18T05:43:49.804Z,2.58
2022-10-18T05:46:16.251Z,2.97
2022-10-18T05:48:44.589Z,1.90
2022-10-18T05:51:11.702Z,2.30
2022-10-18T05:53:38.487Z,2.10
2022-10-18T05:56:06.170Z,2.10
2022-10-18T05:58:33.277Z,2.35
2022-10-18T06:01:03.946Z,2.63
2022-10-18T06:03:30.865Z,2.20
2022-10-18T06:06:02.305Z,3.10
2022-10-18T06:08:28.813Z,2.90
2022-10-18T06:10:55.585Z,2.50
2022-10-18T06:13:22.091Z,2.72
2022-10-18T06:15:48.665Z,3.20
2022-10-18T06:18:15.508Z,2.20
2022-10-18T06:20:42.057Z,2.75
2022-10-18T06:23:08.531Z,2.80
2022-10-18T06:25:35.008Z,2.58
2022-10-18T06:28:01.457Z,2.53
2022-10-18T06:30:27.856Z,2.30
2022-10-18T06:32:54.329Z,2.50
2022-10-18T06:35:20.736Z,2.60
2022-10-18T06:37:47.138Z,2.65
2022-10-18T06:40:13.985Z,2.55
2022-10-18T06:42:40.464Z,2.20
2022-10-18T06:45:07.490Z,2.65
2022-10-18T06:47:33.927Z,2.58
2022-10-18T06:50:00.364Z,2.58
2022-10-18T06:52:26.894Z,2.53
2022-10-18T06:54:53.836Z,2.63
2022-10-18T06:57:21.285Z,2.80
2022-10-18T06:59:47.738Z,2.38
2022-10-18T07:02:16.282Z,2.53
2022-10-18T07:04:43.229Z,2.67
2022-10-18T07:07:09.886Z,2.73
2022-10-18T07:09:36.339Z,3.00
2022-10-18T07:12:02.835Z,2.53
2022-10-18T07:14:29.367Z,2.60
2022-10-18T07:16:59.080Z,3.10
2022-10-18T07:19:25.676Z,2.83
2022-10-18T07:21:52.090Z,2.40
2022-10-18T07:24:18.582Z,2.40
2022-10-18T07:26:45.182Z,2.53
2022-10-18T07:29:49.602Z,2.58
2022-10-18T07:32:16.086Z,2.80
2022-10-18T07:34:42.526Z,2.80
2022-10-18T07:37:09.995Z,2.78
2022-10-18T07:39:36.466Z,3.17
2022-10-18T07:42:02.914Z,2.58
2022-10-18T07:44:29.376Z,2.77
2022-10-18T07:46:55.889Z,2.67
2022-10-18T07:49:22.483Z,2.78
2022-10-18T07:51:48.968Z,2.33
2022-10-18T07:54:20.446Z,2.85
2022-10-18T08:01:14.931Z,3.47
2022-10-18T08:07:38.457Z,2.65
2022-10-18T08:10:54.667Z,2.88
2022-10-18T08:13:21.295Z,3.40
2022-10-18T08:15:48.367Z,3.30
2022-10-18T08:18:15.119Z,3.08
2022-10-18T08:20:49.684Z,3.22
2022-10-18T08:23:16.121Z,2.70
2022-10-18T08:25:42.535Z,3.10
2022-10-18T08:28:09.118Z,3.85
2022-10-18T08:30:35.909Z,2.40
2022-10-18T08:33:03.191Z,2.65
2022-10-18T08:35:29.613Z,3.30
2022-10-18T08:37:56.122Z,2.73
2022-10-18T08:40:22.759Z,3.00
2022-10-18T08:43:21.753Z,3.00
2022-10-18T08:45:50.989Z,2.97
2022-10-18T08:48:29.687Z,3.10
2022-10-18T08:50:57.544Z,3.50
2022-10-18T08:53:26.660Z,2.83
2022-10-18T08:56:00.782Z,2.90
2022-10-18T08:58:31.653Z,2.78
2022-10-18T09:01:26.015Z,3.50
2022-10-18T09:04:30.309Z,3.10
2022-10-18T09:07:08.900Z,2.70
2022-10-18T09:09:41.383Z,2.40
2022-10-18T09:13:15.367Z,2.88
2022-10-18T09:19:46.789Z,2.10
2022-10-18T09:22:19.172Z,1.15
2022-10-18T09:24:54.430Z,2.05
2022-10-18T09:27:43.789Z,0.80
2022-10-18T09:30:20.600Z,0.70
2022-10-18T09:33:24.330Z,0.97
2022-10-18T09:35:56.902Z,0.80
2022-10-18T09:42:18.057Z,1.02
2022-10-18T09:45:14.367Z,0.50
2022-10-18T09:48:01.932Z,0.77
2022-10-18T09:50:50.255Z,0.57
2022-10-18T09:53:27.179Z,0.50
2022-10-18T09:56:11.224Z,0.68
2022-10-18T09:58:46.730Z,0.70
2022-10-18T10:01:16.344Z,0.80
2022-10-18T10:03:42.993Z,0.52
2022-10-18T10:06:12.594Z,0.45
2022-10-18T10:08:51.978Z,0.40
2022-10-18T10:11:33.119Z,0.40
2022-10-18T10:14:27.850Z,0.37
2022-10-18T10:17:02.465Z,0.35
2022-10-18T10:19:33.506Z,0.50
2022-10-18T10:22:09.449Z,0.40
2022-10-18T10:24:49.468Z,0.20
2022-10-18T10:27:21.095Z,0.30
2022-10-18T10:29:47.801Z,0.40
2022-10-18T10:32:17.170Z,0.60
2022-10-18T10:34:44.884Z,0.32
2022-10-18T10:37:23.712Z,0.75
2022-10-18T10:40:23.116Z,0.53
2022-10-18T10:43:08.931Z,0.50
2022-10-18T10:46:13.164Z,0.30
2022-10-18T10:48:48.721Z,0.30
2022-10-18T10:51:38.458Z,0.35
2022-10-18T10:54:22.533Z,0.40
2022-10-18T10:56:55.348Z,0.68
2022-10-18T10:59:26.130Z,0.20
2022-10-18T11:02:32.723Z,0.30
2022-10-18T11:05:26.163Z,0.30
2022-10-18T11:07:58.107Z,0.30
2022-10-18T11:10:30.909Z,0.30
2022-10-18T11:13:18.734Z,0.40
2022-10-18T11:15:50.998Z,0.32
2022-10-18T11:18:23.965Z,0.30
2022-10-18T11:21:00.298Z,0.70
2022-10-18T11:23:32.544Z,0.40
2022-10-18T11:26:11.197Z,0.43
2022-10-18T11:28:56.527Z,0.90
2022-10-18T11:31:32.021Z,0.35
2022-10-18T11:34:26.261Z,0.50
2022-10-18T11:37:27.700Z,0.40
2022-10-18T11:40:02.879Z,0.30
2022-10-18T11:42:42.111Z,0.75
2022-10-18T11:45:56.777Z,0.20
2022-10-18T11:48:23.154Z,0.70
2022-10-18T11:51:12.304Z,0.20
2022-10-18T11:54:08.454Z,0.50
2022-10-18T11:57:13.867Z,0.30
2022-10-18T12:00:08.699Z,0.40
2022-10-18T12:02:41.316Z,0.20
2022-10-18T12:05:23.134Z,0.55
2022-10-18T12:08:00.795Z,0.30
2022-10-18T12:10:44.360Z,0.50
2022-10-18T12:13:24.658Z,0.28
2022-10-18T12:15:52.152Z,0.40
2022-10-18T12:18:24.046Z,0.30
2022-10-18T12:20:54.690Z,0.30
2022-10-18T12:23:30.375Z,0.40
2022-10-18T12:26:02.738Z,0.32
2022-10-18T12:28:59.253Z,0.33
2022-10-18T12:31:59.029Z,0.20
2022-10-18T12:34:32.357Z,0.30
2022-10-18T12:37:15.883Z,0.20
2022-10-18T12:40:05.595Z,0.30
2022-10-18T12:42:41.243Z,0.30
2022-10-18T12:45:13.702Z,0.98
2022-10-18T12:47:40.657Z,0.38
2022-10-18T12:50:21.685Z,0.20
2022-10-18T12:53:03.426Z,0.68
2022-10-18T12:55:38.748Z,0.30
2022-10-18T12:58:24.205Z,0.28
2022-10-18T13:00:51.582Z,0.20
2022-10-18T13:03:18.090Z,0.30
2022-10-18T13:05:55.979Z,0.30
2022-10-18T13:08:33.909Z,0.33
2022-10-18T13:11:12.430Z,0.30
2022-10-18T13:14:00.619Z,0.25
2022-10-18T13:16:36.235Z,0.20
2022-10-18T13:19:21.156Z,0.25
2022-10-18T13:22:28.401Z,0.40
2022-10-18T13:25:20.118Z,0.20
2022-10-18T13:28:15.079Z,0.40
2022-10-18T13:30:50.334Z,0.30
2022-10-18T13:33:20.170Z,0.30
2022-10-18T13:36:04.005Z,0.30
2022-10-18T13:38:37.192Z,0.38
2022-10-18T13:41:07.606Z,0.30
2022-10-18T13:44:11.795Z,0.20
2022-10-18T13:46:38.497Z,0.50
2022-10-18T13:49:14.655Z,0.30
2022-10-18T13:51:52.473Z,0.20
2022-10-18T13:54:37.797Z,0.20
2022-10-18T13:57:13.750Z,0.40
2022-10-18T14:00:05.645Z,0.25
2022-10-18T14:03:21.930Z,0.27
2022-10-18T14:06:15.223Z,0.30
2022-10-18T14:09:09.488Z,0.30
2022-10-18T14:12:21.371Z,0.30
2022-10-18T14:15:25.492Z,0.25
2022-10-18T14:17:59.116Z,0.30
2022-10-18T14:20:30.214Z,0.20
2022-10-18T14:22:56.761Z,0.38
2022-10-18T14:25:41.442Z,0.20
2022-10-18T14:28:14.188Z,0.20
2022-10-18T14:30:58.862Z,0.30
2022-10-18T14:33:45.580Z,0.88
2022-10-18T14:36:15.819Z,0.30
2022-10-18T14:38:59.201Z,0.63
2022-10-18T14:41:28.304Z,0.30
2022-10-18T14:44:16.609Z,0.60
2022-10-18T14:46:46.924Z,0.60
2022-10-18T14:49:15.351Z,2.95
2022-10-18T14:51:44.013Z,0.55
2022-10-18T14:54:19.325Z,0.50
2022-10-18T14:56:46.136Z,14.13
2022-10-18T14:59:28.331Z,12.85
2022-10-18T15:02:13.159Z,4.30
2022-10-18T15:04:39.706Z,1.40
2022-10-18T15:07:13.659Z,2.90
2022-10-18T15:09:40.637Z,2.40
2022-10-18T15:12:07.926Z,0.90
2022-10-18T15:14:35.553Z,3.45
2022-10-18T15:17:12.174Z,11.45
2022-10-18T15:19:42.850Z,20.23
2022-10-18T15:25:05.474Z,4.45
2022-10-18T15:27:36.534Z,1.38
2022-10-18T15:30:10.868Z,2.03
2022-10-18T15:32:37.885Z,4.03
2022-10-18T15:35:14.489Z,1.33
2022-10-18T15:37:44.214Z,0.82
2022-10-18T15:40:23.002Z,3.03
2022-10-18T15:42:51.472Z,3.15
2022-10-18T15:45:24.272Z,4.05
2022-10-18T15:48:49.222Z,3.70
2022-10-18T15:51:47.401Z,4.28
2022-10-18T15:54:29.758Z,7.65
2022-10-18T15:56:56.809Z,2.45
2022-10-18T15:59:30.767Z,1.92
2022-10-18T16:01:57.327Z,7.10
2022-10-18T16:04:30.253Z,8.00
2022-10-18T16:06:57.914Z,21.88
2022-10-18T16:09:27.468Z,18.17
2022-10-18T16:11:57.199Z,26.77
2022-10-18T16:14:25.896Z,19.80
2022-10-18T16:17:03.240Z,15.52
2022-10-18T16:19:30.774Z,14.73
2022-10-18T16:21:59.185Z,7.00
2022-10-18T16:24:27.682Z,1.42
2022-10-18T16:26:54.261Z,1.00
2022-10-18T16:32:58.390Z,0.35
2022-10-18T16:35:24.958Z,0.98
2022-10-18T16:37:51.409Z,0.35
2022-10-18T16:40:26.117Z,0.80
2022-10-18T16:42:52.600Z,0.60
2022-10-18T16:45:19.237Z,0.55
2022-10-18T16:47:45.796Z,0.70
2022-10-18T16:50:18.217Z,0.40
2022-10-18T16:52:44.718Z,0.20
2022-10-18T16:55:17.166Z,0.50
2022-10-18T16:58:21.057Z,1.02
2022-10-18T17:00:47.601Z,0.35
2022-10-18T17:03:14.796Z,0.30
2022-10-18T17:05:41.710Z,0.47
2022-10-18T17:08:18.790Z,0.32
2022-10-18T17:10:46.175Z,0.50
2022-10-18T17:13:12.693Z,0.20
2022-10-18T17:15:42.112Z,0.57
2022-10-18T17:18:21.721Z,0.60
2022-10-18T17:20:48.707Z,0.60
2022-10-18T17:23:15.596Z,0.75
2022-10-18T17:25:57.748Z,2.60
2022-10-18T17:28:55.510Z,2.63
2022-10-18T17:31:22.526Z,2.83
2022-10-18T17:33:49.323Z,1.85
2022-10-18T17:36:15.824Z,2.70
2022-10-18T17:38:42.409Z,2.33
2022-10-18T17:41:10.416Z,2.10
2022-10-18T17:43:37.914Z,7.17
2022-10-18T17:46:04.872Z,7.13
2022-10-18T17:48:40.631Z,5.53
2022-10-18T17:51:11.455Z,4.95
2022-10-18T17:53:38.378Z,9.55
2022-10-18T17:56:06.278Z,9.00
2022-10-18T17:59:10.292Z,7.63
2022-10-18T18:01:43.968Z,6.43
2022-10-18T18:04:10.430Z,2.33
2022-10-18T18:06:40.097Z,2.30
2022-10-18T18:10:04.941Z,1.83
2022-10-18T18:12:31.741Z,1.05
2022-10-18T18:14:58.373Z,0.80
2022-10-18T18:17:33.876Z,0.90
2022-10-18T18:20:11.771Z,0.50
2022-10-18T18:22:41.620Z,0.83
2022-10-18T18:25:09.661Z,1.40
2022-10-18T18:27:36.128Z,1.38
2022-10-18T18:30:02.639Z,1.08
2022-10-18T18:32:29.083Z,1.15
2022-10-18T18:34:55.587Z,1.67
2022-10-18T18:37:22.017Z,1.15
2022-10-18T18:39:48.554Z,1.52
2022-10-18T18:42:15.019Z,1.50
2022-10-18T18:44:45.825Z,1.15
2022-10-18T18:47:15.626Z,1.57
2022-10-18T18:49:42.256Z,1.90
2022-10-18T18:52:08.745Z,1.48
2022-10-18T18:54:35.148Z,1.10
2022-10-18T18:57:05.203Z,0.85
2022-10-18T18:59:31.665Z,1.00
2022-10-18T19:01:58.135Z,2.40
2022-10-18T19:04:24.629Z,4.50
2022-10-18T19:06:51.102Z,7.25
2022-10-18T19:09:20.398Z,6.90
2022-10-18T19:11:48.524Z,1.93
2022-10-18T19:14:15.628Z,1.08
2022-10-18T19:16:53.362Z,0.90
2022-10-18T19:19:25.079Z,1.23
2022-10-18T19:21:53.999Z,1.35
2022-10-18T19:24:23.552Z,1.43
2022-10-18T19:26:54.416Z,1.40
2022-10-18T19:29:29.404Z,1.58
2022-10-18T19:31:58.727Z,2.17
2022-10-18T19:34:26.715Z,2.58
2022-10-18T19:36:53.858Z,2.80
2022-10-18T19:39:23.117Z,2.92
2022-10-18T19:41:52.038Z,3.70
2022-10-18T19:44:19.448Z,3.20
2022-10-18T19:46:46.172Z,3.08
2022-10-18T19:49:13.234Z,3.10
2022-10-18T19:51:39.985Z,2.70
2022-10-18T19:54:06.492Z,2.50
2022-10-18T19:56:33.194Z,2.75
2022-10-18T19:59:00.027Z,1.95
2022-10-18T20:01:27.714Z,2.30
2022-10-18T20:03:54.576Z,1.65
2022-10-18T20:06:21.874Z,2.20
2022-10-18T20:08:48.773Z,2.28
2022-10-18T20:11:18.589Z,1.85
2022-10-18T20:13:45.113Z,1.20
2022-10-18T20:16:13.899Z,1.42
2022-10-18T20:18:42.948Z,1.83
2022-10-18T20:21:12.377Z,2.30
2022-10-18T20:23:40.673Z,1.70
2022-10-18T20:26:18.267Z,1.77
2022-10-18T20:28:49.218Z,1.77
2022-10-18T20:31:19.384Z,1.85
2022-10-18T20:33:47.162Z,1.60
2022-10-18T20:36:16.379Z,1.70
2022-10-18T20:38:44.385Z,1.10
2022-10-18T20:41:14.668Z,1.48
2022-10-18T20:43:41.448Z,1.40
2022-10-18T20:46:10.038Z,1.33
2022-10-18T20:48:38.496Z,1.30
2022-10-18T20:51:06.995Z,1.10
2022-10-18T20:53:35.255Z,1.27
2022-10-18T20:56:07.029Z,1.00
2022-10-18T20:58:34.622Z,0.70
2022-10-18T21:01:09.521Z,0.70
2022-10-18T21:03:41.708Z,1.10
2022-10-18T21:06:13.480Z,1.13
2022-10-18T21:08:40.840Z,1.92
2022-10-18T21:11:15.049Z,1.80
2022-10-18T21:13:41.485Z,1.58
2022-10-18T21:16:08.659Z,2.93
2022-10-18T21:18:37.067Z,3.35
2022-10-18T21:24:39.320Z,1.77
2022-10-18T21:27:05.777Z,1.70
2022-10-18T21:29:32.356Z,1.57
2022-10-18T21:31:59.684Z,1.58
2022-10-18T21:34:26.578Z,1.40
2022-10-18T21:36:53.051Z,1.10
2022-10-18T21:41:53.682Z,1.00
2022-10-18T21:44:20.262Z,1.15
2022-10-18T21:46:47.151Z,1.30
2022-10-18T21:49:14.434Z,1.02
2022-10-18T21:51:41.142Z,1.02
2022-10-18T21:54:11.480Z,1.20
2022-10-18T21:56:38.122Z,1.40
2022-10-18T21:59:05.171Z,1.55
2022-10-18T22:01:34.622Z,1.20
2022-10-18T22:04:03.326Z,1.95
2022-10-18T22:06:32.677Z,1.43
2022-10-18T22:09:01.827Z,1.20
2022-10-18T22:11:37.805Z,1.25
2022-10-18T22:14:04.453Z,1.00
2022-10-18T22:16:31.054Z,1.02
2022-10-18T22:18:59.717Z,1.33
2022-10-18T22:21:27.017Z,1.30
2022-10-18T22:23:54.813Z,1.13
2022-10-18T22:26:27.669Z,1.33
2022-10-18T22:29:00.143Z,1.45
2022-10-18T22:31:29.847Z,1.23
2022-10-18T22:34:01.776Z,1.30
2022-10-18T22:36:28.663Z,1.20
2022-10-18T22:38:55.392Z,1.27
2022-10-18T22:41:21.919Z,1.02
2022-10-18T22:43:51.005Z,1.27
2022-10-18T22:46:17.790Z,1.00
2022-10-18T22:48:44.559Z,1.17
2022-10-18T22:51:11.873Z,0.90
2022-10-18T22:53:39.699Z,1.50
2022-10-18T22:56:07.883Z,1.77
2022-10-18T22:58:34.430Z,1.40
2022-10-18T23:01:03.181Z,1.55
2022-10-18T23:03:29.646Z,1.35
2022-10-18T23:05:56.163Z,1.90
2022-10-18T23:08:22.884Z,1.83
2022-10-18T23:10:53.592Z,1.73
2022-10-18T23:13:20.181Z,2.05
2022-10-18T23:15:46.710Z,2.00
2022-10-18T23:18:13.199Z,2.10
2022-10-18T23:20:39.613Z,1.73
2022-10-18T23:23:06.145Z,2.03
2022-10-18T23:25:36.071Z,1.95
2022-10-18T23:28:02.966Z,1.70
2022-10-18T23:30:29.798Z,2.42
2022-10-18T23:40:49.256Z,1.58
